Time;durP1;ratioP1;P1;durP2;ratioP2;P2;SDS_P1;SDS_P2;PMS_P1;PMS_P2;Temp;Humidity;BMP_temperature;BMP_pressure;BME280_temperature;BME280_humidity;BME280_pressure;Samples;Min_cycle;Max_cycle;Signal;HPM_P1;HPM_P2
2023/09/16 00:01:08;;;;;;;3.33;2.63;;;16.00;99.90;;;;;;5053584;28;20204;-66
2023/09/16 00:03:35;;;;;;;3.07;2.80;;;16.00;99.90;;;;;;5055870;28;20179;-67
2023/09/16 00:06:01;;;;;;;3.50;2.50;;;16.00;99.90;;;;;;5057597;28;20497;-67
2023/09/16 00:08:27;;;;;;;3.63;3.30;;;15.90;99.90;;;;;;5053270;28;20530;-67
2023/09/16 00:10:52;;;;;;;5.40;2.43;;;15.90;99.90;;;;;;5053238;28;20463;-68
2023/09/16 00:13:19;;;;;;;4.47;2.87;;;15.90;99.90;;;;;;5053128;28;20201;-67
2023/09/16 00:15:45;;;;;;;2.77;2.33;;;15.80;99.90;;;;;;5053263;28;20193;-68
2023/09/16 00:18:11;;;;;;;8.80;2.93;;;15.90;99.90;;;;;;5053020;28;20922;-67
2023/09/16 00:20:36;;;;;;;3.90;2.47;;;15.80;99.90;;;;;;5053142;28;20502;-68
2023/09/16 00:23:04;;;;;;;3.00;2.70;;;15.90;99.90;;;;;;5051652;28;20191;-67
2023/09/16 00:25:29;;;;;;;3.73;2.20;;;15.80;99.90;;;;;;5053577;28;20646;-68
2023/09/16 00:27:55;;;;;;;3.47;2.83;;;15.80;99.90;;;;;;5052966;28;20507;-67
2023/09/16 00:30:21;;;;;;;4.80;3.63;;;15.80;99.90;;;;;;5053066;28;20660;-68
2023/09/16 00:32:46;;;;;;;3.67;2.43;;;15.70;99.90;;;;;;5052641;28;20185;-67
2023/09/16 00:35:13;;;;;;;4.43;2.70;;;15.70;99.90;;;;;;5053001;28;20192;-67
2023/09/16 00:37:38;;;;;;;3.30;2.97;;;15.70;99.90;;;;;;5052702;28;20204;-67
2023/09/16 00:40:08;;;;;;;4.63;3.37;;;15.60;99.90;;;;;;5053119;28;20468;-69
2023/09/16 00:42:37;;;;;;;3.90;2.50;;;15.60;99.90;;;;;;5052599;28;20167;-67
2023/09/16 00:45:08;;;;;;;5.57;2.90;;;15.70;99.90;;;;;;5076007;22;20552;-73
2023/09/16 00:47:34;;;;;;;6.90;2.70;;;15.60;99.90;;;;;;5064580;28;20476;-71
2023/09/16 00:50:00;;;;;;;3.17;2.87;;;15.60;99.90;;;;;;5052711;28;20413;-70
2023/09/16 00:52:26;;;;;;;4.57;2.70;;;15.50;99.90;;;;;;5052532;28;20167;-70
2023/09/16 00:54:54;;;;;;;3.87;2.70;;;15.50;99.90;;;;;;5052275;28;20983;-71
2023/09/16 00:57:20;;;;;;;3.77;2.50;;;15.50;99.90;;;;;;5052639;28;20230;-70
2023/09/16 00:59:45;;;;;;;5.53;2.63;;;15.50;99.90;;;;;;5052326;28;20894;-72
2023/09/16 01:02:14;;;;;;;3.43;3.10;;;15.50;99.90;;;;;;5052204;28;20187;-74
2023/09/16 01:04:40;;;;;;;4.07;3.27;;;15.40;99.90;;;;;;5052337;28;20449;-73
2023/09/16 01:07:06;;;;;;;3.47;2.23;;;15.40;99.90;;;;;;5052381;28;20455;-71
2023/09/16 01:09:31;;;;;;;3.40;2.40;;;15.30;99.90;;;;;;5052420;28;20418;-70
2023/09/16 01:11:57;;;;;;;3.40;2.70;;;15.30;99.90;;;;;;5050888;28;20586;-71
2023/09/16 01:14:23;;;;;;;3.00;2.57;;;15.30;99.90;;;;;;5051229;28;20425;-71
2023/09/16 01:16:57;;;;;;;4.47;2.70;;;15.30;99.90;;;;;;5051937;28;20203;-70
2023/09/16 01:19:46;;;;;;;4.80;3.20;;;15.30;99.90;;;;;;5052463;28;20413;-71
2023/09/16 01:22:14;;;;;;;7.20;2.77;;;15.20;99.90;;;;;;5051970;28;20403;-71
2023/09/16 01:24:40;;;;;;;6.80;3.70;;;15.20;99.90;;;;;;5051795;28;20464;-72
2023/09/16 01:27:07;;;;;;;3.10;2.23;;;15.20;99.90;;;;;;5052909;28;20502;-73
2023/09/16 01:29:33;;;;;;;3.33;2.60;;;15.20;99.90;;;;;;5063530;28;20409;-71
2023/09/16 01:32:21;;;;;;;3.00;2.70;;;15.20;99.90;;;;;;5071959;28;20410;-70
2023/09/16 01:34:53;;;;;;;4.43;3.10;;;15.20;99.90;;;;;;5048897;28;20420;-70
2023/09/16 01:37:22;;;;;;;4.47;2.70;;;15.10;99.90;;;;;;5051890;28;20413;-70
2023/09/16 01:39:57;;;;;;;4.60;2.90;;;15.10;99.90;;;;;;5051614;28;20417;-69
2023/09/16 01:42:24;;;;;;;3.57;2.90;;;15.10;99.90;;;;;;5051671;28;20416;-71
2023/09/16 01:44:54;;;;;;;3.00;2.70;;;15.10;99.90;;;;;;5051413;28;20417;-71
2023/09/16 01:47:20;;;;;;;4.03;2.93;;;15.10;99.90;;;;;;5051828;28;20907;-71
2023/09/16 01:49:46;;;;;;;3.20;2.90;;;15.10;99.90;;;;;;5051629;28;20457;-71
2023/09/16 01:52:11;;;;;;;4.43;3.17;;;15.10;99.90;;;;;;5065066;28;20444;-70
2023/09/16 01:54:37;;;;;;;4.80;2.93;;;15.00;99.90;;;;;;5071633;28;20171;-71
2023/09/16 01:57:03;;;;;;;4.20;2.80;;;15.00;99.90;;;;;;5071587;28;20205;-70
2023/09/16 01:59:28;;;;;;;3.27;2.97;;;15.10;99.90;;;;;;5072029;28;20176;-72
2023/09/16 02:01:54;;;;;;;4.73;2.73;;;15.00;99.90;;;;;;5071442;28;20175;-71
2023/09/16 02:04:20;;;;;;;3.57;2.70;;;14.90;99.90;;;;;;5071727;28;20213;-70
2023/09/16 02:06:46;;;;;;;3.10;2.20;;;14.90;99.90;;;;;;5071387;28;20543;-70
2023/09/16 02:09:12;;;;;;;7.07;3.13;;;14.90;99.90;;;;;;5071482;28;20600;-70
2023/09/16 02:11:39;;;;;;;4.57;2.80;;;14.90;99.90;;;;;;5072536;28;20417;-70
2023/09/16 02:14:04;;;;;;;5.00;3.20;;;14.80;99.90;;;;;;5075651;28;20409;-71
2023/09/16 02:16:31;;;;;;;4.60;3.03;;;14.80;99.90;;;;;;5059814;28;20536;-70
2023/09/16 02:18:57;;;;;;;5.60;2.60;;;14.80;99.90;;;;;;5055962;28;20164;-74
2023/09/16 02:21:22;;;;;;;4.23;2.47;;;14.80;99.90;;;;;;5055863;28;20913;-71
2023/09/16 02:23:48;;;;;;;4.63;3.33;;;14.80;99.90;;;;;;5055582;28;20535;-70
2023/09/16 02:26:14;;;;;;;4.30;2.70;;;14.80;99.90;;;;;;5055707;28;20562;-70
2023/09/16 02:28:40;;;;;;;6.23;2.30;;;14.70;99.90;;;;;;5055589;28;20536;-71
2023/09/16 02:31:09;;;;;;;3.70;2.33;;;14.80;99.90;;;;;;5055505;28;20539;-70
2023/09/16 02:33:35;;;;;;;7.10;2.93;;;14.80;99.90;;;;;;5055222;28;20445;-69
2023/09/16 02:36:01;;;;;;;6.43;3.13;;;14.70;99.90;;;;;;5055289;28;20536;-72
2023/09/16 02:38:27;;;;;;;4.83;3.27;;;14.70;99.90;;;;;;5055159;28;20457;-70
2023/09/16 02:40:52;;;;;;;3.70;2.30;;;14.70;99.90;;;;;;5055138;28;20362;-71
2023/09/16 02:43:18;;;;;;;3.13;2.60;;;14.70;99.90;;;;;;5054888;28;20167;-71
2023/09/16 02:45:44;;;;;;;3.20;2.90;;;14.70;99.90;;;;;;5054771;28;20212;-72
2023/09/16 02:48:10;;;;;;;3.80;2.90;;;14.70;99.90;;;;;;5055110;28;20262;-75
2023/09/16 02:50:38;;;;;;;5.03;2.70;;;14.60;99.90;;;;;;5054988;28;20178;-74
2023/09/16 02:53:04;;;;;;;3.97;2.80;;;14.60;99.90;;;;;;5055043;28;20417;-71
2023/09/16 02:55:33;;;;;;;3.70;2.87;;;14.50;99.90;;;;;;5055062;28;20453;-73
2023/09/16 02:57:59;;;;;;;4.20;2.80;;;14.50;99.90;;;;;;5071448;28;20171;-70
2023/09/16 03:00:25;;;;;;;3.83;2.87;;;14.50;99.90;;;;;;5054966;28;20409;-70
2023/09/16 03:02:51;;;;;;;3.20;2.90;;;14.50;99.90;;;;;;5054893;28;20409;-69
2023/09/16 03:05:17;;;;;;;4.00;2.83;;;14.40;99.90;;;;;;5054724;28;20535;-70
2023/09/16 03:07:44;;;;;;;4.17;2.73;;;14.40;99.90;;;;;;5054487;28;20186;-70
2023/09/16 03:10:10;;;;;;;4.40;2.80;;;14.40;99.90;;;;;;5054595;28;20175;-71
2023/09/16 03:12:36;;;;;;;5.70;2.87;;;14.40;99.90;;;;;;5054403;28;20817;-70
2023/09/16 03:15:01;;;;;;;4.77;2.70;;;14.40;99.90;;;;;;5053016;28;20504;-70
2023/09/16 03:17:27;;;;;;;4.77;3.40;;;14.30;99.90;;;;;;5054472;28;20246;-70
2023/09/16 03:19:53;;;;;;;3.73;3.43;;;14.30;99.90;;;;;;5054309;28;20178;-71
2023/09/16 03:22:18;;;;;;;3.40;2.60;;;14.30;99.90;;;;;;5054411;28;20664;-70
2023/09/16 03:24:44;;;;;;;4.87;2.90;;;14.30;99.90;;;;;;5053259;28;20221;-74
2023/09/16 03:27:10;;;;;;;3.73;2.50;;;14.30;99.90;;;;;;5054180;28;20182;-71
2023/09/16 03:29:35;;;;;;;4.00;3.10;;;14.30;99.90;;;;;;5054152;28;20175;-69
2023/09/16 03:32:01;;;;;;;4.37;2.50;;;14.20;99.90;;;;;;5054126;28;20486;-70
2023/09/16 03:34:27;;;;;;;5.77;2.97;;;14.20;99.90;;;;;;5054034;28;20179;-71
2023/09/16 03:36:53;;;;;;;4.80;3.50;;;14.20;99.90;;;;;;5053871;28;20203;-72
2023/09/16 03:39:19;;;;;;;3.77;3.30;;;14.20;99.90;;;;;;5054005;28;20478;-71
2023/09/16 03:41:45;;;;;;;3.40;2.63;;;14.20;99.90;;;;;;5071033;28;20421;-69
2023/09/16 03:44:12;;;;;;;5.30;3.40;;;14.20;99.90;;;;;;5069619;28;20567;-71
2023/09/16 03:46:39;;;;;;;4.60;3.00;;;14.30;99.90;;;;;;5053764;28;20211;-70
2023/09/16 03:49:05;;;;;;;4.13;2.37;;;14.20;99.90;;;;;;5052475;28;20410;-74
2023/09/16 03:51:33;;;;;;;4.60;3.70;;;14.20;99.90;;;;;;5053826;28;20418;-72
2023/09/16 03:53:59;;;;;;;4.97;3.10;;;14.20;99.90;;;;;;5053633;28;20946;-71
2023/09/16 03:56:24;;;;;;;5.30;3.23;;;14.10;99.90;;;;;;5054041;28;20461;-72
2023/09/16 03:58:50;;;;;;;4.53;3.20;;;14.10;99.90;;;;;;5054376;28;20501;-72
2023/09/16 04:01:16;;;;;;;5.03;3.13;;;14.10;99.90;;;;;;5053613;28;20175;-72
2023/09/16 04:03:42;;;;;;;3.40;2.90;;;14.10;99.90;;;;;;5053407;28;20175;-73
2023/09/16 04:06:08;;;;;;;6.33;2.87;;;14.10;99.90;;;;;;5054141;28;20187;-71
2023/09/16 04:08:34;;;;;;;4.90;3.73;;;14.00;99.90;;;;;;5054379;28;20774;-72
2023/09/16 04:10:59;;;;;;;4.37;3.30;;;14.00;99.90;;;;;;5052118;28;20175;-70
2023/09/16 04:13:25;;;;;;;3.50;3.20;;;14.00;99.90;;;;;;5053288;28;20425;-70
2023/09/16 04:15:51;;;;;;;4.13;3.10;;;13.90;99.90;;;;;;5053160;28;20201;-69
2023/09/16 04:18:17;;;;;;;6.13;3.90;;;13.90;99.90;;;;;;5053170;28;20504;-71
2023/09/16 04:20:45;;;;;;;5.30;3.20;;;13.90;99.90;;;;;;5053751;28;20653;-73
2023/09/16 04:23:10;;;;;;;3.70;3.27;;;13.90;99.90;;;;;;5053140;28;20414;-72
2023/09/16 04:25:36;;;;;;;3.07;2.77;;;13.80;99.90;;;;;;5053233;28;20436;-71
2023/09/16 04:28:03;;;;;;;3.80;2.87;;;13.80;99.90;;;;;;5053350;28;20209;-71
2023/09/16 04:30:29;;;;;;;3.30;2.90;;;13.80;99.90;;;;;;5053802;28;20174;-71
2023/09/16 04:32:54;;;;;;;6.77;3.90;;;13.80;99.90;;;;;;5053319;28;20417;-70
2023/09/16 04:35:20;;;;;;;3.37;2.67;;;13.80;99.90;;;;;;5052027;28;20194;-71
2023/09/16 04:37:46;;;;;;;2.80;2.60;;;13.80;99.90;;;;;;5052994;28;20675;-71
2023/09/16 04:40:12;;;;;;;8.80;3.23;;;13.80;99.90;;;;;;5052920;28;20175;-73
2023/09/16 04:42:40;;;;;;;3.50;2.93;;;13.80;99.90;;;;;;5052963;28;20658;-71
2023/09/16 04:45:06;;;;;;;6.27;3.17;;;13.80;99.90;;;;;;5052438;28;20654;-72
2023/09/16 04:47:33;;;;;;;3.73;3.10;;;13.80;99.90;;;;;;5052733;28;20456;-72
2023/09/16 04:49:59;;;;;;;4.70;3.40;;;13.80;99.90;;;;;;5052618;28;20431;-71
2023/09/16 04:52:25;;;;;;;5.70;3.40;;;13.80;99.90;;;;;;5052397;28;20418;-70
2023/09/16 04:54:54;;;;;;;5.00;3.17;;;13.80;99.90;;;;;;5052457;28;20297;-72
2023/09/16 04:57:21;;;;;;;4.60;3.53;;;13.80;99.90;;;;;;5052712;28;20213;-71
2023/09/16 04:59:47;;;;;;;4.67;4.07;;;13.80;99.90;;;;;;5052529;28;20445;-70
2023/09/16 05:02:13;;;;;;;4.80;3.60;;;13.80;99.90;;;;;;5052417;28;20897;-70
2023/09/16 05:04:38;;;;;;;3.50;3.20;;;13.80;99.90;;;;;;5052445;28;20429;-69
2023/09/16 05:07:07;;;;;;;3.87;2.80;;;13.80;99.90;;;;;;5052237;28;21087;-70
2023/09/16 05:09:35;;;;;;;3.30;3.00;;;13.80;99.90;;;;;;5052567;28;20206;-69
2023/09/16 05:12:02;;;;;;;5.00;3.93;;;13.70;99.90;;;;;;5052351;28;21036;-71
2023/09/16 05:14:27;;;;;;;6.23;3.60;;;13.80;99.90;;;;;;5052227;28;20410;-70
2023/09/16 05:16:53;;;;;;;3.40;2.93;;;13.80;99.90;;;;;;5052119;28;20472;-71
2023/09/16 05:19:18;;;;;;;5.50;3.53;;;13.80;99.90;;;;;;5052137;28;20205;-71
2023/09/16 05:21:44;;;;;;;3.50;3.07;;;13.90;99.90;;;;;;5052001;28;20175;-69
2023/09/16 05:24:09;;;;;;;4.60;2.90;;;13.80;99.90;;;;;;5052058;28;20271;-69
2023/09/16 05:26:35;;;;;;;5.47;3.27;;;13.80;99.90;;;;;;5052164;28;20605;-71
2023/09/16 05:29:01;;;;;;;6.93;3.37;;;13.80;99.90;;;;;;5062351;28;20588;-71
2023/09/16 05:31:26;;;;;;;4.00;2.63;;;13.80;99.90;;;;;;5072454;28;20224;-70
2023/09/16 05:33:52;;;;;;;4.87;4.07;;;13.90;99.90;;;;;;5071908;28;20178;-71
2023/09/16 05:36:20;;;;;;;4.37;3.57;;;13.90;99.90;;;;;;5073711;28;20444;-70
2023/09/16 05:38:45;;;;;;;6.63;3.87;;;14.00;99.90;;;;;;5075193;28;20170;-70
2023/09/16 05:41:11;;;;;;;4.73;3.30;;;14.00;99.90;;;;;;5073329;28;20914;-71
2023/09/16 05:43:37;;;;;;;5.90;4.20;;;14.20;99.90;;;;;;5071816;28;20186;-71
2023/09/16 05:46:02;;;;;;;3.90;3.20;;;14.40;99.90;;;;;;5071270;28;20215;-69
2023/09/16 05:48:28;;;;;;;3.80;3.33;;;14.50;99.90;;;;;;5071631;28;20279;-70
2023/09/16 05:50:58;;;;;;;5.27;3.80;;;14.70;99.90;;;;;;5054301;28;20197;-70
2023/09/16 05:53:24;;;;;;;5.83;3.70;;;14.90;99.90;;;;;;5057006;28;20495;-70
2023/09/16 05:55:51;;;;;;;3.80;2.87;;;15.10;99.90;;;;;;5071798;28;20485;-70
2023/09/16 05:58:18;;;;;;;6.53;3.60;;;15.20;99.90;;;;;;5072356;28;20433;-71
2023/09/16 06:00:43;;;;;;;5.33;3.33;;;15.50;99.90;;;;;;5071871;28;20421;-70
2023/09/16 06:03:09;;;;;;;5.97;4.00;;;15.50;99.90;;;;;;5070682;28;20422;-72
2023/09/16 06:05:35;;;;;;;4.17;3.47;;;15.90;99.90;;;;;;5072296;28;20239;-71
2023/09/16 06:08:01;;;;;;;5.60;3.73;;;16.20;99.90;;;;;;5071914;28;20192;-71
2023/09/16 06:10:27;;;;;;;4.27;3.30;;;16.40;99.90;;;;;;5071881;28;20182;-71
2023/09/16 06:12:52;;;;;;;5.90;4.00;;;16.60;99.90;;;;;;5071496;28;20510;-71
2023/09/16 06:15:18;;;;;;;8.43;4.13;;;16.80;99.90;;;;;;5070255;28;20212;-71
2023/09/16 06:17:44;;;;;;;5.30;3.80;;;17.10;99.90;;;;;;5071508;28;20182;-72
2023/09/16 06:20:10;;;;;;;5.60;2.93;;;17.20;99.90;;;;;;5060382;28;20257;-74
2023/09/16 06:22:35;;;;;;;3.17;2.77;;;17.20;99.90;;;;;;5051620;28;20547;-70
2023/09/16 06:25:01;;;;;;;3.47;3.17;;;17.60;99.90;;;;;;5052115;28;20196;-70
2023/09/16 06:27:27;;;;;;;7.07;3.93;;;17.60;99.90;;;;;;5057056;28;20653;-72
2023/09/16 06:29:53;;;;;;;4.63;3.50;;;18.30;99.90;;;;;;5051764;28;20189;-70
2023/09/16 06:32:19;;;;;;;4.63;3.30;;;18.00;99.90;;;;;;5051256;28;20421;-71
2023/09/16 06:34:45;;;;;;;4.27;3.30;;;19.00;99.90;;;;;;5067287;28;20183;-71
2023/09/16 06:37:10;;;;;;;3.60;3.03;;;18.60;99.90;;;;;;5071248;28;20955;-71
2023/09/16 06:39:37;;;;;;;7.13;3.40;;;18.10;99.90;;;;;;5071225;28;20197;-72
2023/09/16 06:42:04;;;;;;;3.33;3.03;;;18.80;99.90;;;;;;5071010;28;20182;-71
2023/09/16 06:44:30;;;;;;;6.37;3.47;;;19.00;99.90;;;;;;5071163;28;20914;-71
2023/09/16 06:46:56;;;;;;;6.40;3.83;;;19.10;99.90;;;;;;5070927;28;20454;-74
2023/09/16 06:49:21;;;;;;;5.80;3.10;;;18.60;99.90;;;;;;5097264;22;20220;-68
2023/09/16 06:51:47;;;;;;;6.53;3.97;;;19.10;99.90;;;;;;5050944;28;20175;-66
2023/09/16 06:54:13;;;;;;;4.57;3.53;;;19.20;99.90;;;;;;5050966;28;20609;-66
2023/09/16 06:56:39;;;;;;;3.17;2.87;;;19.40;99.90;;;;;;5051214;28;20216;-68
2023/09/16 06:59:04;;;;;;;5.90;3.67;;;19.50;99.90;;;;;;5052486;28;20437;-66
2023/09/16 07:01:30;;;;;;;4.03;3.30;;;20.00;99.90;;;;;;5054567;28;20254;-69
2023/09/16 07:03:57;;;;;;;5.00;3.60;;;19.80;99.90;;;;;;5053828;28;20304;-67
2023/09/16 07:06:23;;;;;;;5.33;2.80;;;20.50;99.90;;;;;;5047386;28;20172;-67
2023/09/16 07:08:48;;;;;;;4.30;3.53;;;20.20;99.90;;;;;;5054463;28;20440;-69
2023/09/16 07:11:15;;;;;;;3.30;3.00;;;20.70;99.90;;;;;;5054477;28;20296;-67
2023/09/16 07:13:40;;;;;;;5.23;3.47;;;20.60;99.90;;;;;;5054351;28;20178;-67
2023/09/16 07:16:06;;;;;;;5.23;3.50;;;19.90;99.90;;;;;;5054306;28;20758;-68
2023/09/16 07:18:32;;;;;;;3.80;2.87;;;19.20;99.90;;;;;;5046154;28;20562;-69
2023/09/16 07:20:57;;;;;;;3.73;2.73;;;20.20;99.90;;;;;;5054391;28;20172;-66
2023/09/16 07:23:23;;;;;;;3.60;3.30;;;20.50;99.90;;;;;;5054334;28;20578;-68
2023/09/16 07:25:57;;;;;;;4.53;3.80;;;20.80;99.90;;;;;;5054304;28;20177;-67
2023/09/16 07:28:24;;;;;;;5.63;3.20;;;21.80;99.90;;;;;;5046831;28;20530;-68
2023/09/16 07:30:50;;;;;;;7.67;3.90;;;20.80;99.90;;;;;;5054149;28;20417;-67
2023/09/16 07:33:15;;;;;;;5.97;3.53;;;20.80;99.90;;;;;;5054235;28;20491;-66
2023/09/16 07:35:41;;;;;;;3.80;2.90;;;21.80;99.90;;;;;;5053952;28;20197;-70
2023/09/16 07:38:08;;;;;;;4.80;3.00;;;21.10;99.90;;;;;;5054205;28;20171;-67
2023/09/16 07:40:35;;;;;;;3.07;2.77;;;21.80;99.90;;;;;;5053980;28;20191;-67
2023/09/16 07:43:01;;;;;;;4.50;3.47;;;22.00;99.90;;;;;;5053841;28;20413;-70
2023/09/16 07:45:27;;;;;;;4.27;3.03;;;21.90;99.90;;;;;;5055995;28;21044;-69
2023/09/16 07:47:53;;;;;;;3.00;2.80;;;22.70;99.90;;;;;;5055090;28;20183;-67
2023/09/16 07:50:18;;;;;;;2.97;2.77;;;23.10;99.90;;;;;;5053695;28;20692;-67
2023/09/16 07:52:44;;;;;;;3.70;3.37;;;23.10;99.90;;;;;;5053903;28;20504;-67
2023/09/16 07:55:10;;;;;;;3.80;2.90;;;23.20;99.90;;;;;;5053512;28;20571;-67
2023/09/16 07:57:36;;;;;;;3.73;2.80;;;23.30;99.90;;;;;;5053564;28;20250;-68
2023/09/16 08:00:03;;;;;;;3.80;2.63;;;23.10;99.90;;;;;;5053343;28;20205;-66
2023/09/16 08:02:29;;;;;;;3.60;2.90;;;22.60;99.90;;;;;;5053526;28;20167;-67
2023/09/16 08:04:54;;;;;;;4.73;2.97;;;22.90;99.90;;;;;;5053517;28;20504;-67
2023/09/16 08:07:20;;;;;;;4.03;3.00;;;23.80;99.90;;;;;;5053597;28;20174;-67
2023/09/16 08:09:46;;;;;;;3.27;2.97;;;23.60;99.90;;;;;;5052962;28;20198;-67
2023/09/16 08:12:11;;;;;;;3.33;3.03;;;24.40;99.90;;;;;;5051597;28;20174;-70
2023/09/16 08:14:37;;;;;;;3.40;3.00;;;23.50;99.90;;;;;;5053113;28;20522;-67
2023/09/16 08:17:03;;;;;;;4.93;3.00;;;23.40;99.90;;;;;;5053697;28;20273;-68
2023/09/16 08:19:30;;;;;;;3.60;2.80;;;23.60;99.90;;;;;;5052992;28;20200;-67
2023/09/16 08:21:56;;;;;;;11.57;3.70;;;23.40;99.90;;;;;;5053354;28;20237;-69
2023/09/16 08:24:22;;;;;;;3.20;2.90;;;24.20;99.90;;;;;;5052857;28;20409;-67
2023/09/16 08:26:48;;;;;;;6.63;3.03;;;23.90;99.90;;;;;;5053018;28;20174;-69
2023/09/16 08:29:14;;;;;;;5.83;2.70;;;24.10;99.90;;;;;;5052620;28;20425;-70
2023/09/16 08:31:39;;;;;;;4.40;3.27;;;24.60;99.90;;;;;;5052765;28;20174;-68
2023/09/16 08:34:05;;;;;;;4.53;4.13;;;24.90;99.90;;;;;;5052892;28;20203;-68
2023/09/16 08:36:30;;;;;;;4.67;2.97;;;24.20;99.90;;;;;;5053076;28;20579;-68
2023/09/16 08:38:56;;;;;;;4.07;2.87;;;24.40;99.90;;;;;;5052457;28;20198;-69
2023/09/16 08:41:30;;;;;;;3.33;2.80;;;24.70;99.90;;;;;;5044463;28;20171;-68
2023/09/16 08:43:59;;;;;;;3.10;2.80;;;24.90;99.90;;;;;;5052862;28;20591;-68
2023/09/16 08:46:29;;;;;;;3.63;2.70;;;25.30;99.90;;;;;;5044714;28;20409;-69
2023/09/16 08:48:55;;;;;;;4.23;3.30;;;24.40;99.90;;;;;;5052315;28;20455;-68
2023/09/16 08:51:23;;;;;;;4.43;3.20;;;24.30;99.90;;;;;;5052445;28;20516;-67
2023/09/16 08:53:51;;;;;;;3.40;3.00;;;25.30;99.90;;;;;;5051002;28;20417;-70
2023/09/16 08:56:17;;;;;;;3.13;2.70;;;24.40;99.90;;;;;;5052105;28;21620;-69
2023/09/16 08:58:44;;;;;;;5.30;3.37;;;24.00;99.90;;;;;;5052771;28;20937;-69
2023/09/16 09:01:13;;;;;;;4.90;3.03;;;23.50;99.90;;;;;;5052326;28;20412;-68
2023/09/16 09:03:39;;;;;;;4.40;2.90;;;23.30;99.90;;;;;;5052310;28;20818;-68
2023/09/16 09:06:07;;;;;;;3.93;3.33;;;23.90;99.90;;;;;;5052069;28;20409;-69
2023/09/16 09:08:33;;;;;;;4.73;2.83;;;23.60;99.90;;;;;;5052177;28;20163;-67
2023/09/16 09:10:59;;;;;;;2.93;2.63;;;24.00;99.90;;;;;;5052067;28;20409;-69
2023/09/16 09:13:27;;;;;;;7.10;3.43;;;25.00;99.90;;;;;;5052557;28;20432;-70
2023/09/16 09:15:59;;;;;;;3.23;2.87;;;24.60;99.90;;;;;;5052024;28;20191;-71
2023/09/16 09:18:25;;;;;;;3.90;3.50;;;24.70;99.90;;;;;;5052146;28;20409;-70
2023/09/16 09:20:51;;;;;;;3.53;2.70;;;25.50;99.90;;;;;;5051427;28;20410;-67
2023/09/16 09:23:16;;;;;;;3.00;2.70;;;25.40;99.90;;;;;;5051839;28;20182;-68
2023/09/16 09:25:42;;;;;;;3.70;3.30;;;25.50;99.90;;;;;;5052695;28;20409;-68
2023/09/16 09:28:08;;;;;;;3.47;2.37;;;25.60;99.90;;;;;;5053219;28;20163;-68
2023/09/16 09:30:34;;;;;;;3.80;2.80;;;26.30;99.90;;;;;;5051942;28;20702;-67
2023/09/16 09:33:00;;;;;;;2.93;2.40;;;26.70;99.90;;;;;;5051457;28;20413;-68
2023/09/16 09:35:31;;;;;;;5.10;3.00;;;26.70;99.90;;;;;;5051519;28;20216;-68
2023/09/16 09:37:57;;;;;;;4.40;3.00;;;25.90;99.90;;;;;;5051470;28;20567;-67
2023/09/16 09:40:23;;;;;;;3.77;3.23;;;25.00;99.90;;;;;;5051361;28;20803;-66
2023/09/16 09:42:51;;;;;;;3.73;3.13;;;25.50;99.90;;;;;;5051536;28;20789;-66
2023/09/16 09:45:21;;;;;;;3.10;2.80;;;24.90;99.90;;;;;;5051387;28;20500;-67
2023/09/16 09:47:49;;;;;;;3.30;3.00;;;25.00;99.90;;;;;;5051491;28;20755;-68
2023/09/16 09:50:16;;;;;;;5.07;3.20;;;24.20;99.90;;;;;;5050948;28;20441;-67
2023/09/16 09:52:50;;;;;;;4.00;3.40;;;24.20;99.90;;;;;;5045569;28;20414;-69
2023/09/16 09:55:17;;;;;;;3.30;3.00;;;24.30;99.90;;;;;;5050230;28;20918;-70
2023/09/16 09:57:45;;;;;;;4.07;2.67;;;23.90;99.90;;;;;;5051362;28;20781;-67
2023/09/16 10:00:15;;;;;;;5.67;2.67;;;24.00;99.90;;;;;;5051410;28;20944;-69
2023/09/16 10:02:42;;;;;;;6.03;2.87;;;23.90;99.90;;;;;;5051258;28;20416;-69
2023/09/16 10:05:17;;;;;;;3.20;3.00;;;23.40;99.90;;;;;;5051260;28;20415;-68
2023/09/16 10:07:44;;;;;;;3.20;2.90;;;23.30;99.90;;;;;;5051708;28;20419;-69
2023/09/16 10:10:25;;;;;;;4.10;2.93;;;23.60;99.90;;;;;;5051083;28;20434;-70
2023/09/16 10:12:55;;;;;;;3.70;3.13;;;23.80;99.90;;;;;;5051239;28;20418;-67
2023/09/16 10:15:26;;;;;;;3.40;3.10;;;23.80;99.90;;;;;;5050852;28;20412;-67
2023/09/16 10:17:52;;;;;;;3.83;2.80;;;23.40;99.90;;;;;;5051076;28;20417;-67
2023/09/16 10:20:17;;;;;;;3.23;2.93;;;23.40;99.90;;;;;;5050949;28;20435;-68
2023/09/16 10:22:44;;;;;;;4.13;2.83;;;23.80;99.90;;;;;;5051096;28;20180;-67
2023/09/16 10:25:12;;;;;;;5.27;3.60;;;23.60;99.90;;;;;;5051072;28;20198;-67
2023/09/16 10:27:52;;;;;;;4.63;4.07;;;23.60;99.90;;;;;;5051064;28;20498;-68
2023/09/16 10:30:18;;;;;;;4.10;3.70;;;23.60;99.90;;;;;;5050909;28;20950;-67
2023/09/16 10:32:45;;;;;;;4.87;3.43;;;23.50;99.90;;;;;;5052361;28;20476;-67
2023/09/16 10:35:10;;;;;;;3.80;3.20;;;23.30;99.90;;;;;;5054940;28;20409;-71
2023/09/16 10:37:37;;;;;;;3.30;2.90;;;23.50;99.90;;;;;;5055030;28;21019;-67
2023/09/16 10:40:07;;;;;;;7.10;3.37;;;23.70;99.90;;;;;;5055229;28;20239;-67
2023/09/16 10:42:36;;;;;;;3.10;2.90;;;23.50;99.90;;;;;;5054788;28;20828;-70
2023/09/16 10:45:02;;;;;;;4.27;3.17;;;23.30;99.90;;;;;;5054915;28;20409;-67
2023/09/16 10:47:28;;;;;;;4.70;4.30;;;23.20;99.90;;;;;;5047121;28;20487;-67
2023/09/16 10:49:54;;;;;;;5.33;3.80;;;23.50;99.90;;;;;;5054699;28;20495;-69
2023/09/16 10:52:30;;;;;;;4.07;3.77;;;23.30;99.90;;;;;;5054639;28;20413;-67
2023/09/16 10:55:17;;;;;;;3.70;3.40;;;23.40;99.90;;;;;;5054566;28;20448;-67
2023/09/16 10:57:52;;;;;;;4.80;3.43;;;23.30;99.90;;;;;;5055053;28;20903;-70
2023/09/16 11:00:21;;;;;;;4.57;3.00;;;23.20;99.90;;;;;;5046344;28;20470;-67
2023/09/16 11:02:51;;;;;;;6.57;3.60;;;23.20;99.90;;;;;;5054491;28;20478;-67
2023/09/16 11:05:16;;;;;;;3.77;3.23;;;23.30;99.90;;;;;;5054742;28;20417;-67
2023/09/16 11:07:42;;;;;;;4.10;3.50;;;23.20;99.90;;;;;;5056131;28;20499;-69
2023/09/16 11:10:09;;;;;;;4.13;3.77;;;23.20;99.90;;;;;;5054677;28;20215;-68
2023/09/16 11:12:35;;;;;;;4.60;3.20;;;23.20;99.90;;;;;;5054659;28;20205;-67
2023/09/16 11:15:08;;;;;;;4.70;3.77;;;23.20;99.90;;;;;;5054303;28;20416;-69
2023/09/16 11:17:36;;;;;;;6.07;3.40;;;23.50;99.90;;;;;;5054385;28;20494;-67
2023/09/16 11:20:24;;;;;;;4.07;3.13;;;23.50;99.90;;;;;;5054086;28;20538;-66
2023/09/16 11:22:50;;;;;;;3.50;3.20;;;23.50;99.90;;;;;;5054330;28;20409;-68
2023/09/16 11:25:16;;;;;;;3.43;3.03;;;23.40;99.90;;;;;;5054104;28;20489;-68
2023/09/16 11:27:44;;;;;;;3.50;3.20;;;23.30;99.90;;;;;;5054068;28;20170;-67
2023/09/16 11:30:14;;;;;;;4.47;3.40;;;23.60;99.90;;;;;;5053875;28;20427;-67
2023/09/16 11:32:41;;;;;;;3.53;3.23;;;23.50;99.90;;;;;;5054040;28;20814;-67
2023/09/16 11:35:08;;;;;;;3.70;3.17;;;23.50;99.90;;;;;;5053714;28;20407;-66
2023/09/16 11:37:34;;;;;;;5.10;3.83;;;23.70;99.90;;;;;;5054206;28;20423;-68
2023/09/16 11:40:02;;;;;;;4.10;3.70;;;23.80;99.90;;;;;;5053766;28;20442;-70
2023/09/16 11:42:28;;;;;;;3.50;3.20;;;23.70;99.90;;;;;;5053734;28;20177;-68
2023/09/16 11:44:55;;;;;;;4.87;3.70;;;23.80;99.90;;;;;;5053635;28;20413;-68
2023/09/16 11:47:20;;;;;;;4.93;3.80;;;23.90;99.90;;;;;;5054129;28;20177;-69
2023/09/16 11:49:48;;;;;;;3.27;2.97;;;23.90;99.90;;;;;;5053905;28;20452;-67
2023/09/16 11:52:15;;;;;;;4.20;3.30;;;23.90;99.90;;;;;;5053481;28;20171;-67
2023/09/16 11:54:40;;;;;;;4.33;3.93;;;24.00;99.90;;;;;;5053596;28;20424;-67
2023/09/16 11:57:06;;;;;;;4.43;3.50;;;23.60;99.90;;;;;;5053549;28;20987;-69
2023/09/16 11:59:34;;;;;;;3.30;3.00;;;23.70;99.90;;;;;;5051860;28;20192;-66
2023/09/16 12:02:00;;;;;;;7.70;3.80;;;23.90;99.90;;;;;;5053451;28;20169;-67
2023/09/16 12:04:27;;;;;;;4.07;3.77;;;24.10;99.90;;;;;;5053296;28;20987;-67
2023/09/16 12:06:54;;;;;;;3.50;3.20;;;24.10;99.90;;;;;;5053302;28;20171;-68
2023/09/16 12:09:22;;;;;;;3.43;3.13;;;24.10;99.90;;;;;;5053121;28;20502;-67
2023/09/16 12:11:50;;;;;;;3.50;3.20;;;24.10;99.90;;;;;;5053245;28;20420;-67
2023/09/16 12:14:15;;;;;;;3.83;3.27;;;24.30;99.90;;;;;;5053280;28;20421;-67
2023/09/16 12:16:42;;;;;;;4.20;3.80;;;24.40;99.90;;;;;;5053393;28;20554;-68
2023/09/16 12:19:08;;;;;;;3.57;3.27;;;24.30;99.90;;;;;;5052996;28;20555;-69
2023/09/16 12:21:34;;;;;;;3.80;3.50;;;24.30;99.90;;;;;;5053086;28;20409;-68
2023/09/16 12:24:00;;;;;;;3.97;3.60;;;24.30;99.90;;;;;;5051722;28;20672;-68
2023/09/16 12:26:25;;;;;;;4.07;3.67;;;24.20;99.90;;;;;;5052877;28;20449;-68
2023/09/16 12:28:51;;;;;;;3.43;3.13;;;24.10;99.90;;;;;;5046981;28;20221;-68
2023/09/16 12:31:21;;;;;;;3.70;3.30;;;24.10;99.90;;;;;;5050608;28;20659;-68
2023/09/16 12:33:49;;;;;;;3.77;3.27;;;24.10;99.90;;;;;;5047456;28;20686;-69
2023/09/16 12:36:20;;;;;;;3.93;3.53;;;24.10;99.90;;;;;;5050465;28;20458;-67
2023/09/16 12:38:47;;;;;;;3.73;3.53;;;24.20;99.90;;;;;;5053015;28;20454;-68
2023/09/16 12:41:13;;;;;;;4.20;3.83;;;24.20;99.90;;;;;;5053005;28;20410;-67
2023/09/16 12:43:40;;;;;;;5.53;5.07;;;24.40;99.90;;;;;;5048370;28;20529;-69
2023/09/16 12:46:08;;;;;;;9.17;3.80;;;24.50;99.90;;;;;;5048964;28;20405;-67